.
WxDataArchive / Data Records for 2010-04-20
2010-04-19 April 2010 2010-04-21

Data Records for Tuesday, 20 April 2010

Time	Temp	Chill	HIndex	Humid	Dewpt	 Wind 	HiWind	WindDir	Rain 	Barom 
-----	----	-----	------	-----	-----	------	------	-------	-----	----- 
00:00	46.2	46.2	46.2	75	38.7	0	0	---	0.00	30.098 
00:05	46.1	46.1	46.1	75	38.6	0	0	---	0.00	30.098 
00:10	46.0	46.0	46.0	75	38.5	0	0	---	0.00	30.098 
00:15	45.8	45.8	45.8	76	38.7	0	0	---	0.00	30.096 
00:20	45.8	45.8	45.8	77	39.0	0	0	---	0.00	30.096 
00:25	45.7	45.7	45.7	77	38.9	0	0	---	0.00	30.096 
00:30	45.5	45.5	45.5	77	38.7	0	0	---	0.00	30.095 
00:35	45.5	45.5	45.5	80	39.7	0	1	90	0.00	30.095 
00:40	45.5	45.5	45.5	81	40.0	0	0	---	0.00	30.095 
00:45	45.4	45.4	45.4	80	39.6	0	0	---	0.00	30.099 
00:50	45.2	45.2	45.2	78	38.8	0	0	---	0.00	30.099 
00:55	45.1	45.1	45.1	75	37.7	0	0	---	0.00	30.099 
01:00	44.9	44.9	44.9	72	36.4	0	0	---	0.00	30.099 
01:05	44.8	44.8	44.8	70	35.6	0	0	---	0.00	30.099 
01:10	44.8	44.8	44.8	70	35.6	0	0	---	0.00	30.099 
01:15	44.8	44.8	44.8	70	35.6	0	0	---	0.00	30.095 
01:20	44.6	44.6	44.6	70	35.4	0	0	---	0.00	30.095 
01:25	44.5	44.5	44.5	70	35.3	0	0	---	0.00	30.095 
01:30	44.3	44.3	44.3	70	35.1	0	0	---	0.00	30.092 
01:35	44.3	44.3	44.3	70	35.1	0	0	---	0.00	30.092 
01:40	44.2	44.2	44.2	70	35.0	0	0	---	0.00	30.092 
01:45	44.1	44.1	44.1	71	35.3	0	0	---	0.00	30.094 
01:50	43.9	43.9	43.9	71	35.1	0	0	---	0.00	30.094 
01:55	43.8	43.8	43.8	71	35.0	0	0	---	0.00	30.094 
02:00	43.6	43.6	43.6	72	35.2	0	0	---	0.00	30.089 
02:05	43.6	43.6	43.6	73	35.5	0	0	---	0.00	30.089 
02:10	43.5	43.5	43.5	74	35.8	0	0	---	0.00	30.089 
02:15	43.5	43.5	43.5	75	36.1	0	0	---	0.00	30.084 
02:20	43.3	43.3	43.3	75	35.9	0	0	---	0.00	30.084 
02:25	43.2	43.2	43.2	76	36.2	0	0	---	0.00	30.084 
02:30	43.1	43.1	43.1	76	36.1	0	0	---	0.00	30.082 
02:35	42.9	42.9	42.9	77	36.2	0	0	---	0.00	30.082 
02:40	42.8	42.8	42.8	77	36.1	0	0	---	0.00	30.082 
02:45	42.6	42.6	42.6	77	35.9	0	0	---	0.00	30.081 
02:50	42.3	42.3	42.3	77	35.6	0	0	---	0.00	30.081 
02:55	42.2	42.2	42.2	77	35.5	0	0	---	0.00	30.081 
03:00	42.1	42.1	42.1	78	35.7	0	0	---	0.00	30.083 
03:05	41.8	41.8	41.8	78	35.5	0	0	---	0.00	30.083 
03:10	41.6	41.6	41.6	79	35.6	0	0	---	0.00	30.083 
03:15	41.5	41.5	41.5	79	35.5	0	0	---	0.00	30.082 
03:20	41.3	41.3	41.3	80	35.6	0	0	---	0.00	30.082 
03:25	41.2	41.2	41.2	80	35.5	0	0	---	0.00	30.082 
03:30	41.1	41.1	41.1	81	35.7	0	0	---	0.00	30.084 
03:35	40.9	40.9	40.9	81	35.5	0	0	---	0.00	30.084 
03:40	40.8	40.8	40.8	81	35.4	0	0	---	0.00	30.084 
03:45	40.6	40.6	40.6	82	35.5	0	0	---	0.00	30.083 
03:50	40.6	40.6	40.6	83	35.8	0	0	---	0.00	30.083 
03:55	40.5	40.5	40.5	84	36.1	0	0	---	0.00	30.083 
04:00	40.5	40.5	40.5	84	36.1	0	0	---	0.00	30.084 
04:05	40.5	40.5	40.5	84	36.1	0	0	---	0.00	30.084 
04:10	40.5	40.5	40.5	84	36.1	0	0	---	0.00	30.084 
04:15	40.3	40.3	40.3	84	35.9	0	0	---	0.00	30.084 
04:20	40.2	40.2	40.2	84	35.8	0	0	---	0.00	30.084 
04:25	40.2	40.2	40.2	85	36.1	0	0	---	0.00	30.084 
04:30	40.1	40.1	40.1	85	36.0	0	0	---	0.00	30.084 
04:35	40.1	40.1	40.1	85	36.0	0	0	---	0.00	30.084 
04:40	40.1	40.1	40.1	85	36.0	0	0	---	0.00	30.084 
04:45	40.1	40.1	40.1	86	36.3	0	0	---	0.00	30.085 
04:50	40.1	40.1	40.1	86	36.3	0	0	---	0.00	30.085 
04:55	39.9	39.9	39.9	86	36.1	0	0	---	0.00	30.085 
05:00	39.9	39.9	39.9	86	36.1	0	0	---	0.00	30.083 
05:05	39.9	39.9	39.9	86	36.1	0	0	---	0.00	30.083 
05:10	39.9	39.9	39.9	86	36.1	0	0	---	0.00	30.083 
05:15	39.9	39.9	39.9	87	36.4	0	0	---	0.00	30.081 
05:20	39.8	39.8	39.8	87	36.3	0	0	---	0.00	30.081 
05:25	39.8	39.8	39.8	87	36.3	0	0	---	0.00	30.081 
05:30	39.8	39.8	39.8	87	36.3	0	0	---	0.00	30.082 
05:35	39.6	39.6	39.6	86	35.8	0	0	---	0.00	30.082 
05:40	39.6	39.6	39.6	86	35.8	0	0	---	0.00	30.082 
05:45	39.6	39.6	39.6	86	35.8	0	0	---	0.00	30.078 
05:50	39.5	39.5	39.5	86	35.7	0	0	---	0.00	30.078 
05:55	39.5	39.5	39.5	86	35.7	0	0	---	0.00	30.078 
06:00	39.5	39.5	39.5	86	35.7	0	0	---	0.00	30.072 
06:05	39.5	39.5	39.5	86	35.7	0	0	---	0.00	30.072 
06:10	39.5	39.5	39.5	86	35.7	0	0	---	0.00	30.072 
06:15	39.3	39.3	39.3	86	35.5	0	0	---	0.00	30.075 
06:20	39.3	39.3	39.3	86	35.5	0	0	---	0.00	30.075 
06:25	39.2	39.2	39.2	86	35.4	0	0	---	0.00	30.075 
06:30	39.2	39.2	39.2	86	35.4	0	0	---	0.00	30.076 
06:35	39.1	39.1	39.1	87	35.6	0	0	---	0.00	30.076 
06:40	39.1	39.1	39.1	87	35.6	0	0	---	0.00	30.076 
06:45	38.9	38.9	38.9	87	35.4	0	0	---	0.00	30.078 
06:50	38.9	38.9	38.9	87	35.4	0	0	---	0.00	30.078 
06:55	38.8	38.8	38.8	87	35.3	0	0	---	0.00	30.078 
07:00	38.8	38.8	38.8	87	35.3	0	0	---	0.00	30.082 
07:05	38.6	38.6	38.6	87	35.1	0	0	---	0.00	30.082 
07:10	38.6	38.6	38.6	87	35.1	0	0	---	0.00	30.082 
07:15	38.6	38.6	38.6	87	35.1	0	0	---	0.00	30.084 
07:20	38.6	38.6	38.6	88	35.4	0	0	---	0.00	30.084 
07:25	38.6	38.6	38.6	88	35.4	0	0	---	0.00	30.084 
07:30	38.6	38.6	38.6	88	35.4	0	0	---	0.00	30.084 
07:35	38.8	38.8	38.8	88	35.6	0	0	---	0.00	30.084 
07:40	38.9	38.9	38.9	88	35.7	0	0	---	0.00	30.084 
07:45	39.2	39.2	39.2	89	36.2	0	0	---	0.00	30.085 
07:50	39.3	39.3	39.3	89	36.3	0	0	---	0.00	30.085 
07:55	39.6	39.6	39.6	89	36.6	0	0	---	0.00	30.085 
08:00	40.1	40.1	40.1	89	37.1	0	0	---	0.00	30.082 
08:05	40.3	40.3	40.3	89	37.3	0	0	---	0.00	30.082 
08:10	40.8	40.8	40.8	89	37.8	0	0	---	0.00	30.082 
08:15	41.2	41.2	41.2	89	38.2	0	0	---	0.00	30.088 
08:20	41.9	41.9	41.9	90	39.2	0	0	---	0.00	30.088 
08:25	42.6	42.6	42.6	89	39.6	0	0	---	0.00	30.088 
08:30	43.3	43.3	43.3	88	40.0	0	1	225	0.00	30.083 
08:35	44.1	44.1	44.1	81	38.6	0	1	225	0.00	30.083 
08:40	44.8	44.8	44.8	75	37.4	1	3	90	0.00	30.083 
08:45	45.5	45.5	45.5	74	37.7	1	3	90	0.00	30.084 
08:50	46.1	46.1	46.1	72	37.6	1	4	112	0.00	30.084 
08:55	46.5	46.5	46.5	72	38.0	0	3	112	0.00	30.084 
09:00	47.0	47.0	47.0	70	37.7	1	4	112	0.00	30.084 
09:05	47.4	47.4	47.4	69	37.7	1	5	68	0.00	30.084 
09:10	48.0	48.0	48.0	69	38.3	1	3	90	0.00	30.084 
09:15	48.5	48.5	48.5	68	38.4	1	3	90	0.00	30.082 
09:20	48.8	48.8	48.8	67	38.3	1	4	90	0.00	30.082 
09:25	48.9	48.9	48.9	67	38.4	1	4	90	0.00	30.082 
09:30	49.4	49.4	49.4	68	39.3	0	3	90	0.00	30.080 
09:35	49.8	49.8	49.8	64	38.1	1	4	90	0.00	30.080 
09:40	49.9	49.9	49.9	61	37.0	2	4	90	0.00	30.080 
09:45	50.1	50.1	50.1	63	38.0	1	3	90	0.00	30.077 
09:50	50.5	50.5	50.5	64	38.8	1	3	90	0.00	30.077 
09:55	51.0	51.0	51.0	59	37.2	2	4	90	0.00	30.077 
10:00	51.1	51.1	51.1	59	37.3	1	3	90	0.00	30.071 
10:05	51.6	51.6	51.6	59	37.7	1	3	90	0.00	30.071 
10:10	51.9	51.9	51.9	57	37.1	1	4	90	0.00	30.071 
10:15	52.0	52.0	52.0	55	36.3	1	3	112	0.00	30.071 
10:20	52.6	52.6	52.6	57	37.8	1	3	112	0.00	30.071 
10:25	53.1	53.1	53.1	55	37.4	1	4	112	0.00	30.071 
10:30	53.3	53.3	53.3	53	36.6	1	2	68	0.00	30.070 
10:35	53.8	53.8	53.8	53	37.1	1	5	90	0.00	30.070 
10:40	54.2	54.2	54.2	52	37.0	1	3	90	0.00	30.070 
10:45	54.4	54.4	54.4	51	36.7	1	4	90	0.00	30.068 
10:50	54.5	54.5	54.5	50	36.2	1	4	112	0.00	30.068 
10:55	54.8	54.8	54.8	52	37.5	1	2	112	0.00	30.068 
11:00	55.0	55.0	55.0	53	38.2	1	3	112	0.00	30.067 
11:05	55.1	55.1	55.1	50	36.8	1	3	112	0.00	30.067 
11:10	55.7	55.7	55.7	49	36.8	0	2	112	0.00	30.067 
11:15	56.2	56.2	56.2	48	36.8	1	4	112	0.00	30.067 
11:20	56.0	56.0	56.0	49	37.1	1	4	112	0.00	30.067 
11:25	55.9	55.9	55.9	49	37.0	1	3	112	0.00	30.067 
11:30	55.7	55.7	55.7	49	36.8	1	3	112	0.00	30.066 
11:35	55.9	55.9	55.9	48	36.5	1	4	68	0.00	30.066 
11:40	56.3	56.3	56.3	47	36.3	0	2	68	0.00	30.066 
11:45	56.6	56.6	56.6	45	35.5	1	3	90	0.00	30.062 
11:50	57.2	57.2	57.2	43	34.9	1	3	90	0.00	30.062 
11:55	57.5	57.5	57.5	44	35.8	1	4	112	0.00	30.062 
12:00	57.8	57.8	57.8	46	37.2	1	4	112	0.00	30.052 
12:05	58.1	58.1	58.1	46	37.4	1	6	90	0.00	30.052 
12:10	58.4	58.4	58.4	43	36.0	0	3	112	0.00	30.052 
12:15	58.7	58.7	58.7	42	35.7	1	3	112	0.00	30.049 
12:20	58.9	58.9	58.9	42	35.9	1	3	112	0.00	30.049 
12:25	59.2	59.2	59.2	43	36.7	1	4	112	0.00	30.049 
12:30	59.3	59.3	59.3	46	38.5	0	2	112	0.00	30.045 
12:35	59.8	59.8	59.8	42	36.7	0	2	112	0.00	30.045 
12:40	59.9	59.9	59.9	42	36.8	0	1	112	0.00	30.045 
12:45	59.6	59.6	59.6	39	34.6	2	4	90	0.00	30.038 
12:50	59.3	59.3	59.3	42	36.2	0	2	90	0.00	30.038 
12:55	59.3	59.3	59.3	40	35.0	0	2	135	0.00	30.038 
13:00	59.3	59.3	59.3	38	33.7	1	2	135	0.00	30.034 
13:05	59.6	59.6	59.6	41	35.9	0	2	135	0.00	30.034 
13:10	59.9	59.9	59.9	41	36.1	1	4	135	0.00	30.034 
13:15	59.9	59.9	59.9	42	36.8	1	3	112	0.00	30.030 
13:20	59.9	59.9	59.9	39	34.9	0	1	112	0.00	30.030 
13:25	60.5	60.5	60.5	42	37.3	0	2	112	0.00	30.030 
13:30	60.9	60.9	60.9	40	36.4	1	2	112	0.00	30.021 
13:35	60.7	60.7	60.7	36	33.6	1	3	112	0.00	30.021 
13:40	60.5	60.5	60.5	40	36.1	1	4	135	0.00	30.021 
13:45	60.9	60.9	60.9	39	35.8	1	3	90	0.00	30.016 
13:50	61.2	61.2	61.2	40	36.7	1	4	90	0.00	30.016 
13:55	61.6	61.6	61.6	39	36.4	0	3	90	0.00	30.016 
14:00	62.3	62.3	62.3	40	37.7	0	1	90	0.00	30.007 
14:05	62.4	62.4	62.4	36	35.1	0	2	90	0.00	30.007 
14:10	62.6	62.6	62.6	31	31.5	1	4	112	0.00	30.007 
14:15	62.6	62.6	62.6	34	33.8	0	2	112	0.00	30.003 
14:20	62.6	62.6	62.6	35	34.6	0	2	112	0.00	30.003 
14:25	62.7	62.7	62.7	39	37.4	1	3	22	0.00	30.003 
14:30	63.2	63.2	63.2	38	37.2	0	2	45	0.00	30.000 
14:35	63.4	63.4	63.4	34	34.5	1	5	112	0.00	30.000 
14:40	63.2	63.2	63.2	32	32.9	0	2	90	0.00	30.000 
14:45	62.7	62.7	62.7	32	32.4	0	2	90	0.00	29.990 
14:50	63.1	63.1	63.1	35	35.0	1	3	90	0.00	29.990 
14:55	63.5	63.5	63.5	37	36.8	0	2	112	0.00	29.990 
15:00	63.5	63.5	63.5	37	36.8	1	7	112	0.00	29.986 
15:05	63.4	63.4	63.4	35	35.3	0	3	180	0.00	29.986 
15:10	63.1	63.1	63.1	34	34.3	1	4	270	0.00	29.986 
15:15	62.9	62.9	62.9	36	35.5	1	3	112	0.00	29.982 
15:20	62.7	62.7	62.7	35	34.7	0	3	90	0.00	29.982 
15:25	62.9	62.9	62.9	35	34.8	2	4	112	0.00	29.982 
15:30	63.2	63.2	63.2	34	34.4	1	4	112	0.00	29.974 
15:35	63.4	63.4	63.4	36	36.0	1	3	90	0.00	29.974 
15:40	63.5	63.5	63.5	33	33.9	1	4	90	0.00	29.974 
15:45	63.5	63.5	63.5	36	36.1	1	3	90	0.00	29.968 
15:50	63.4	63.4	63.4	36	36.0	2	5	112	0.00	29.968 
15:55	63.7	63.7	63.7	39	38.3	0	1	112	0.00	29.968 
16:00	63.7	63.7	63.7	31	32.5	1	2	338	0.00	29.962 
16:05	63.9	63.9	63.9	32	33.5	0	1	338	0.00	29.962 
16:10	64.2	64.2	64.2	36	36.7	0	1	338	0.00	29.962 
16:15	64.5	64.5	64.5	31	33.2	1	3	112	0.00	29.956 
16:20	64.2	64.2	64.2	35	36.0	0	2	45	0.00	29.956 
16:25	64.3	64.3	64.3	36	36.8	0	2	45	0.00	29.956 
16:30	64.3	64.3	64.3	32	33.8	2	6	112	0.00	29.953 
16:35	64.5	64.5	64.5	30	32.4	0	2	112	0.00	29.953 
16:40	64.5	64.5	64.5	30	32.4	0	2	112	0.00	29.953 
16:45	64.5	64.5	64.5	34	35.5	1	5	90	0.00	29.949 
16:50	64.7	64.7	64.7	34	35.7	0	1	90	0.00	29.949 
16:55	64.8	64.8	64.8	27	30.0	1	3	90	0.00	29.949 
17:00	64.8	64.8	64.8	27	30.0	1	4	90	0.00	29.946 
17:05	64.2	64.2	64.2	28	30.4	2	4	90	0.00	29.946 
17:10	63.7	63.7	63.7	29	30.8	1	3	90	0.00	29.946 
17:15	63.5	63.5	63.5	30	31.5	0	1	90	0.00	29.942 
17:20	63.7	63.7	63.7	28	30.0	0	0	---	0.00	29.942 
17:25	63.9	63.9	63.9	27	29.3	0	1	90	0.00	29.942 
17:30	64.2	64.2	64.2	32	33.7	0	1	90	0.00	29.941 
17:35	63.9	63.9	63.9	33	34.2	1	3	90	0.00	29.941 
17:40	63.5	63.5	63.5	31	32.3	1	2	90	0.00	29.941 
17:45	63.2	63.2	63.2	33	33.6	0	2	90	0.00	29.942 
17:50	63.1	63.1	63.1	31	32.0	0	1	90	0.00	29.942 
17:55	63.1	63.1	63.1	31	32.0	0	3	90	0.00	29.942 
18:00	62.9	62.9	62.9	32	32.6	1	3	90	0.00	29.942 
18:05	62.9	62.9	62.9	30	31.0	0	1	90	0.00	29.942 
18:10	62.7	62.7	62.7	30	30.8	1	3	90	0.00	29.942 
18:15	62.6	62.6	62.6	30	30.7	0	2	90	0.00	29.941 
18:20	62.4	62.4	62.4	35	34.4	0	1	90	0.00	29.941 
18:25	62.4	62.4	62.4	31	31.4	1	4	90	0.00	29.941 
18:30	62.4	62.4	62.4	33	32.9	0	2	90	0.00	29.941 
18:35	62.3	62.3	62.3	34	33.6	0	2	90	0.00	29.941 
18:40	62.3	62.3	62.3	32	32.1	1	3	90	0.00	29.941 
18:45	62.3	62.3	62.3	35	34.3	0	1	90	0.00	29.939 
18:50	62.3	62.3	62.3	34	33.6	0	1	90	0.00	29.939 
18:55	62.3	62.3	62.3	32	32.1	0	1	90	0.00	29.939 
19:00	62.3	62.3	62.3	31	31.3	0	1	90	0.00	29.939 
19:05	62.1	62.1	62.1	34	33.4	1	3	90	0.00	29.939 
19:10	62.0	62.0	62.0	33	32.6	1	3	90	0.00	29.939 
19:15	62.0	62.0	62.0	32	31.8	0	3	90	0.00	29.934 
19:20	61.8	61.8	61.8	34	33.1	1	3	90	0.00	29.934 
19:25	61.8	61.8	61.8	34	33.1	0	2	90	0.00	29.934 
19:30	61.5	61.5	61.5	34	32.9	0	2	90	0.00	29.931 
19:35	61.3	61.3	61.3	36	34.1	0	2	90	0.00	29.931 
19:40	61.2	61.2	61.2	35	33.3	0	1	90	0.00	29.931 
19:45	61.0	61.0	61.0	35	33.2	0	1	90	0.00	29.930 
19:50	60.9	60.9	60.9	37	34.5	0	0	---	0.00	29.930 
19:55	60.5	60.5	60.5	38	34.8	0	1	202	0.00	29.930 
20:00	60.1	60.1	60.1	39	35.1	0	0	---	0.00	29.929 
20:05	59.8	59.8	59.8	38	34.1	0	0	---	0.00	29.929 
20:10	59.3	59.3	59.3	39	34.3	0	0	---	0.00	29.929 
20:15	58.9	58.9	58.9	39	34.0	0	0	---	0.00	29.922 
20:20	58.6	58.6	58.6	39	33.7	0	0	---	0.00	29.922 
20:25	58.1	58.1	58.1	41	34.5	0	0	---	0.00	29.922 
20:30	57.6	57.6	57.6	42	34.7	0	0	---	0.00	29.924 
20:35	57.2	57.2	57.2	43	34.9	0	0	---	0.00	29.924 
20:40	56.6	56.6	56.6	44	34.9	0	0	---	0.00	29.924 
20:45	56.2	56.2	56.2	45	35.1	0	0	---	0.00	29.926 
20:50	55.7	55.7	55.7	46	35.2	0	0	---	0.00	29.926 
20:55	55.3	55.3	55.3	46	34.9	0	0	---	0.00	29.926 
21:00	55.0	55.0	55.0	46	34.6	0	0	---	0.00	29.926 
21:05	54.7	54.7	54.7	46	34.3	0	0	---	0.00	29.926 
21:10	54.2	54.2	54.2	48	34.9	0	0	---	0.00	29.926 
21:15	53.8	53.8	53.8	49	35.1	0	0	---	0.00	29.924 
21:20	53.5	53.5	53.5	50	35.3	0	0	---	0.00	29.924 
21:25	53.1	53.1	53.1	51	35.5	0	0	---	0.00	29.924 
21:30	52.8	52.8	52.8	52	35.7	0	0	---	0.00	29.925 
21:35	52.3	52.3	52.3	53	35.7	0	0	---	0.00	29.925 
21:40	52.0	52.0	52.0	54	35.9	0	0	---	0.00	29.925 
21:45	51.7	51.7	51.7	55	36.1	0	0	---	0.00	29.927 
21:50	51.4	51.4	51.4	57	36.7	0	0	---	0.00	29.927 
21:55	51.1	51.1	51.1	57	36.4	0	0	---	0.00	29.927 
22:00	50.8	50.8	50.8	58	36.6	0	0	---	0.00	29.927 
22:05	50.5	50.5	50.5	59	36.7	0	0	---	0.00	29.927 
22:10	50.2	50.2	50.2	58	36.0	0	0	---	0.00	29.927 
22:15	49.9	49.9	49.9	59	36.1	0	0	---	0.00	29.924 
22:20	49.6	49.6	49.6	60	36.3	0	0	---	0.00	29.924 
22:25	49.4	49.4	49.4	60	36.1	0	0	---	0.00	29.924 
22:30	49.1	49.1	49.1	61	36.2	0	0	---	0.00	29.922 
22:35	48.8	48.8	48.8	62	36.4	0	0	---	0.00	29.922 
22:40	48.5	48.5	48.5	62	36.1	0	0	---	0.00	29.922 
22:45	48.2	48.2	48.2	64	36.6	0	0	---	0.00	29.918 
22:50	48.2	48.2	48.2	65	37.0	0	0	---	0.00	29.918 
22:55	48.0	48.0	48.0	65	36.8	0	0	---	0.00	29.918 
23:00	47.7	47.7	47.7	66	36.9	0	0	---	0.00	29.913 
23:05	47.6	47.6	47.6	67	37.2	0	0	---	0.00	29.913 
23:10	47.4	47.4	47.4	67	37.0	0	0	---	0.00	29.913 
23:15	47.3	47.3	47.3	68	37.3	0	0	---	0.00	29.909 
23:20	47.1	47.1	47.1	69	37.5	0	0	---	0.00	29.909 
23:25	47.0	47.0	47.0	71	38.1	0	0	---	0.00	29.909 
23:30	47.0	47.0	47.0	72	38.4	0	0	---	0.00	29.908 
23:35	47.0	47.0	47.0	70	37.7	0	1	202	0.00	29.908 
23:40	46.8	46.8	46.8	71	37.9	0	0	---	0.00	29.908 
23:45	46.7	46.7	46.7	70	37.4	0	0	---	0.00	29.905 
23:50	46.5	46.5	46.5	69	36.9	0	0	---	0.00	29.905 
23:55	46.4	46.4	46.4	69	36.8	0	0	---	0.00	29.905 

CoCoRaHS
IN-AL-39
A2 Web Hosting
Creative Commons License
GoDaddy
search engine by freefind advanced

loaded 2018-11-13 02:49:05 • last modified 2010-11-18 10:43:29
Privacy PolicyDisclaimer
• wx.awcolley.com is powered by PmWiki v.2002016 •
• all content (unless otherwise noted) © 2018 A W Colley